createdAt,value
2022-11-26T00:02:21.023Z,1.74
2022-11-26T00:04:48.514Z,1.57
2022-11-26T00:07:22.240Z,1.56
2022-11-26T00:09:50.332Z,1.45
2022-11-26T00:12:22.233Z,1.62
2022-11-26T00:14:49.041Z,1.42
2022-11-26T00:17:17.234Z,1.51
2022-11-26T00:19:45.634Z,1.51
2022-11-26T00:22:38.145Z,1.50
2022-11-26T00:25:05.421Z,1.44
2022-11-26T00:27:32.202Z,1.53
2022-11-26T00:29:58.928Z,1.47
2022-11-26T00:32:26.466Z,1.48
2022-11-26T00:34:53.828Z,1.46
2022-11-26T00:37:26.272Z,1.47
2022-11-26T00:39:53.354Z,1.38
2022-11-26T00:42:20.543Z,1.24
2022-11-26T00:44:47.482Z,1.27
2022-11-26T00:47:14.429Z,1.34
2022-11-26T00:49:41.152Z,1.35
2022-11-26T00:52:34.995Z,1.46
2022-11-26T00:55:16.530Z,1.45
2022-11-26T00:57:43.684Z,1.30
2022-11-26T01:00:26.565Z,1.36
2022-11-26T01:02:53.661Z,1.36
2022-11-26T01:05:23.315Z,1.24
2022-11-26T01:07:52.369Z,1.21
2022-11-26T01:10:29.195Z,1.12
2022-11-26T01:12:56.651Z,1.19
2022-11-26T01:15:26.249Z,1.12
2022-11-26T01:17:53.599Z,1.07
2022-11-26T01:20:28.395Z,1.04
2022-11-26T01:22:57.356Z,1.02
2022-11-26T01:25:26.927Z,0.99
2022-11-26T01:27:54.035Z,0.98
2022-11-26T01:30:25.880Z,1.10
2022-11-26T01:32:52.925Z,1.18
2022-11-26T01:35:21.772Z,1.06
2022-11-26T01:37:49.716Z,1.10
2022-11-26T01:40:53.064Z,1.10
2022-11-26T01:43:28.077Z,1.10
2022-11-26T01:45:56.492Z,1.22
2022-11-26T01:48:33.621Z,1.22
2022-11-26T01:51:03.197Z,1.23
2022-11-26T01:53:44.449Z,1.21
2022-11-26T01:56:33.165Z,1.27
2022-11-26T01:59:26.189Z,1.30
2022-11-26T02:01:55.644Z,1.24
2022-11-26T02:04:36.284Z,1.30
2022-11-26T02:07:03.967Z,1.26
2022-11-26T02:09:31.564Z,1.27
2022-11-26T02:11:58.397Z,1.29
2022-11-26T02:14:44.000Z,1.30
2022-11-26T02:17:26.816Z,1.36
2022-11-26T02:20:15.154Z,1.41
2022-11-26T02:22:50.555Z,1.47
2022-11-26T02:25:26.268Z,1.49
2022-11-26T02:28:42.310Z,1.52
2022-11-26T02:31:25.524Z,1.54
2022-11-26T02:34:14.907Z,1.52
2022-11-26T02:37:04.214Z,1.58
2022-11-26T02:39:31.130Z,1.44
2022-11-26T02:42:02.417Z,1.62
2022-11-26T02:44:38.208Z,1.56
2022-11-26T02:47:14.326Z,1.69
2022-11-26T02:49:42.980Z,1.69
2022-11-26T02:52:11.648Z,1.73
2022-11-26T02:54:40.261Z,1.64
2022-11-26T02:57:12.965Z,1.69
2022-11-26T02:59:40.388Z,1.62
2022-11-26T03:02:16.592Z,1.66
2022-11-26T03:04:49.405Z,1.66
2022-11-26T03:07:16.472Z,1.59
2022-11-26T03:09:59.594Z,1.57
2022-11-26T03:12:27.184Z,1.59
2022-11-26T03:14:53.927Z,1.58
2022-11-26T03:17:21.155Z,1.55
2022-11-26T03:19:48.046Z,1.62
2022-11-26T03:22:15.652Z,1.59
2022-11-26T03:24:42.888Z,1.54
2022-11-26T03:27:09.673Z,1.53
2022-11-26T03:29:36.417Z,1.45
2022-11-26T03:32:03.622Z,1.48
2022-11-26T03:34:30.484Z,1.44
2022-11-26T03:36:57.223Z,1.46
2022-11-26T03:39:24.031Z,1.46
2022-11-26T03:41:50.797Z,1.35
2022-11-26T03:44:17.595Z,1.36
2022-11-26T03:46:44.328Z,1.34
2022-11-26T03:49:11.074Z,1.43
2022-11-26T03:51:37.820Z,1.38
2022-11-26T03:54:04.751Z,1.34
2022-11-26T03:56:31.462Z,1.29
2022-11-26T03:58:58.525Z,1.33
2022-11-26T04:01:25.806Z,1.32
2022-11-26T04:03:52.657Z,1.24
2022-11-26T04:06:19.415Z,1.18
2022-11-26T04:08:46.176Z,1.17
2022-11-26T04:11:14.192Z,1.11
2022-11-26T04:13:40.920Z,1.09
2022-11-26T04:16:08.179Z,1.15
2022-11-26T04:18:35.086Z,1.07
2022-11-26T04:21:02.057Z,1.06
2022-11-26T04:23:28.843Z,1.07
2022-11-26T04:25:55.561Z,1.05
2022-11-26T04:28:22.330Z,1.06
2022-11-26T04:30:49.061Z,1.15
2022-11-26T04:33:15.876Z,1.04
2022-11-26T04:35:42.771Z,1.11
2022-11-26T04:38:09.810Z,1.17
2022-11-26T04:40:36.655Z,1.11
2022-11-26T04:43:03.674Z,1.14
2022-11-26T04:45:30.639Z,1.16
2022-11-26T04:47:57.416Z,1.17
2022-11-26T04:50:24.483Z,1.23
2022-11-26T04:52:51.316Z,1.14
2022-11-26T04:55:18.760Z,1.23
2022-11-26T04:57:48.779Z,1.30
2022-11-26T05:00:18.059Z,1.32
2022-11-26T05:02:45.539Z,1.30
2022-11-26T05:05:13.185Z,1.27
2022-11-26T05:07:40.568Z,1.26
2022-11-26T05:10:08.948Z,1.25
2022-11-26T05:12:36.406Z,1.19
2022-11-26T05:15:04.904Z,1.17
2022-11-26T05:17:32.324Z,1.15
2022-11-26T05:19:59.060Z,1.03
2022-11-26T05:22:25.924Z,1.11
2022-11-26T05:24:52.679Z,1.06
2022-11-26T05:27:19.464Z,1.04
2022-11-26T05:29:46.259Z,0.97
2022-11-26T05:32:13.092Z,0.97
2022-11-26T05:34:40.170Z,0.85
2022-11-26T05:37:07.151Z,0.81
2022-11-26T05:39:33.953Z,0.88
2022-11-26T05:42:04.841Z,0.80
2022-11-26T05:44:34.545Z,0.69
2022-11-26T05:47:01.359Z,0.77
2022-11-26T05:49:28.098Z,0.67
2022-11-26T05:51:54.881Z,0.68
2022-11-26T05:54:21.629Z,0.68
2022-11-26T05:56:48.405Z,0.63
2022-11-26T05:59:15.110Z,0.64
2022-11-26T06:01:41.848Z,0.58
2022-11-26T06:04:08.627Z,0.56
2022-11-26T06:06:35.356Z,0.48
2022-11-26T06:09:03.238Z,0.48
2022-11-26T06:11:30.088Z,0.50
2022-11-26T06:13:56.837Z,0.52
2022-11-26T06:16:23.589Z,0.55
2022-11-26T06:18:50.499Z,0.46
2022-11-26T06:21:17.220Z,0.45
2022-11-26T06:23:52.835Z,0.51
2022-11-26T06:26:21.218Z,0.55
2022-11-26T06:28:47.982Z,0.48
2022-11-26T06:31:14.778Z,0.61
2022-11-26T06:33:41.596Z,0.56
2022-11-26T06:36:09.458Z,0.56
2022-11-26T06:38:36.265Z,0.53
2022-11-26T06:41:06.704Z,0.53
2022-11-26T06:43:33.986Z,0.63
2022-11-26T06:46:06.633Z,0.68
2022-11-26T06:48:38.003Z,0.65
2022-11-26T06:51:07.577Z,0.72
2022-11-26T06:53:34.362Z,0.70
2022-11-26T06:56:02.731Z,0.67
2022-11-26T06:58:29.629Z,0.72
2022-11-26T07:00:57.274Z,0.61
2022-11-26T07:03:28.092Z,0.53
2022-11-26T07:05:58.786Z,0.66
2022-11-26T07:08:25.703Z,0.68
2022-11-26T07:10:52.539Z,0.67
2022-11-26T07:13:19.301Z,0.80
2022-11-26T07:15:46.177Z,0.70
2022-11-26T07:18:13.009Z,0.64
2022-11-26T07:20:39.832Z,0.62
2022-11-26T07:23:06.565Z,0.63
2022-11-26T07:25:33.276Z,0.73
2022-11-26T07:28:00.008Z,0.78
2022-11-26T07:30:26.825Z,0.77
2022-11-26T07:32:53.608Z,0.87
2022-11-26T07:35:20.374Z,0.88
2022-11-26T07:37:47.158Z,0.93
2022-11-26T07:40:14.305Z,1.05
2022-11-26T07:42:41.045Z,1.07
2022-11-26T07:45:08.654Z,1.17
2022-11-26T07:47:35.599Z,1.18
2022-11-26T07:50:03.409Z,1.27
2022-11-26T07:52:30.221Z,1.24
2022-11-26T07:54:57.147Z,1.33
2022-11-26T07:57:25.351Z,1.25
2022-11-26T07:59:52.204Z,1.28
2022-11-26T08:02:19.165Z,1.28
2022-11-26T08:04:46.098Z,1.14
2022-11-26T08:07:18.098Z,1.43
2022-11-26T08:09:49.878Z,1.48
2022-11-26T08:12:16.622Z,1.44
2022-11-26T08:14:43.341Z,1.49
2022-11-26T08:17:10.077Z,1.49
2022-11-26T08:19:36.793Z,1.51
2022-11-26T08:22:03.604Z,1.48
2022-11-26T08:24:31.333Z,1.57
2022-11-26T08:27:00.731Z,1.68
2022-11-26T08:29:27.757Z,1.72
2022-11-26T08:31:54.558Z,1.86
2022-11-26T08:34:21.412Z,1.95
2022-11-26T08:36:48.164Z,1.81
2022-11-26T08:39:17.680Z,2.05
2022-11-26T08:41:50.600Z,2.09
2022-11-26T08:44:19.683Z,2.18
2022-11-26T08:46:46.490Z,2.13
2022-11-26T08:49:15.128Z,2.19
2022-11-26T08:51:42.506Z,2.20
2022-11-26T08:54:09.952Z,2.24
2022-11-26T08:56:37.125Z,2.30
2022-11-26T08:59:04.276Z,2.38
2022-11-26T09:01:33.735Z,2.40
2022-11-26T09:04:02.224Z,2.42
2022-11-26T09:06:31.455Z,2.30
2022-11-26T09:09:15.539Z,2.36
2022-11-26T09:11:57.880Z,2.43
2022-11-26T09:14:29.727Z,2.49
2022-11-26T09:16:58.166Z,2.46
2022-11-26T09:19:25.639Z,2.54
2022-11-26T09:21:52.407Z,2.59
2022-11-26T09:24:20.166Z,2.66
2022-11-26T09:26:48.503Z,2.68
2022-11-26T09:29:19.828Z,2.75
2022-11-26T09:32:21.240Z,2.74
2022-11-26T09:34:34.189Z,2.78
2022-11-26T09:37:01.005Z,2.87
2022-11-26T09:39:28.410Z,2.90
2022-11-26T09:42:04.903Z,2.99
2022-11-26T09:44:54.509Z,3.07
2022-11-26T09:47:33.673Z,3.11
2022-11-26T09:50:06.294Z,3.35
2022-11-26T09:53:02.758Z,3.54
2022-11-26T09:55:38.933Z,3.71
2022-11-26T09:58:39.275Z,3.90
2022-11-26T10:01:07.928Z,3.96
2022-11-26T10:03:37.462Z,4.14
2022-11-26T10:06:38.663Z,4.41
2022-11-26T10:09:29.712Z,4.66
2022-11-26T10:12:31.421Z,5.01
2022-11-26T10:15:38.638Z,5.21
2022-11-26T10:18:40.025Z,5.29
2022-11-26T10:21:38.064Z,5.35
2022-11-26T10:24:28.901Z,5.44
2022-11-26T10:26:58.797Z,5.43
2022-11-26T10:29:42.610Z,5.61
2022-11-26T10:32:25.687Z,5.75
2022-11-26T10:34:55.083Z,5.72
2022-11-26T10:37:25.586Z,5.92
2022-11-26T10:40:15.406Z,5.97
2022-11-26T10:42:45.088Z,6.11
2022-11-26T10:45:22.082Z,6.23
2022-11-26T10:47:48.926Z,6.36
2022-11-26T10:53:22.410Z,6.92
2022-11-26T10:55:51.403Z,7.16
2022-11-26T10:58:26.255Z,7.40
2022-11-26T11:01:00.313Z,7.62
2022-11-26T11:06:43.990Z,7.88
2022-11-26T11:09:36.709Z,8.06
2022-11-26T11:12:19.329Z,8.09
2022-11-26T11:14:47.584Z,7.95
2022-11-26T11:17:37.274Z,8.10
2022-11-26T11:20:38.184Z,8.22
2022-11-26T11:23:18.715Z,8.31
2022-11-26T11:25:58.415Z,8.33
2022-11-26T11:28:29.041Z,8.38
2022-11-26T11:31:13.449Z,8.46
2022-11-26T11:33:40.835Z,8.49
2022-11-26T11:36:29.218Z,8.56
2022-11-26T11:39:00.294Z,8.55
2022-11-26T11:41:42.507Z,8.66
2022-11-26T11:44:26.984Z,8.61
2022-11-26T11:47:38.218Z,8.64
2022-11-26T11:50:32.480Z,8.82
2022-11-26T11:53:17.352Z,9.00
2022-11-26T11:56:14.548Z,9.11
2022-11-26T11:59:05.517Z,9.24
2022-11-26T12:02:04.202Z,9.29
2022-11-26T12:05:08.417Z,9.42
2022-11-26T12:07:40.178Z,9.57
2022-11-26T12:10:15.302Z,9.69
2022-11-26T12:13:03.297Z,9.70
2022-11-26T12:16:05.843Z,9.80
2022-11-26T12:18:49.551Z,9.95
2022-11-26T12:21:21.925Z,10.21
2022-11-26T12:24:09.307Z,10.39
2022-11-26T12:26:47.102Z,10.54
2022-11-26T12:30:12.389Z,10.65
2022-11-26T12:33:01.863Z,10.77
2022-11-26T12:35:36.794Z,10.74
2022-11-26T12:38:21.356Z,11.00
2022-11-26T12:41:00.902Z,11.05
2022-11-26T12:43:47.986Z,11.24
2022-11-26T12:46:27.221Z,11.40
2022-11-26T12:49:22.367Z,11.31
2022-11-26T12:52:14.568Z,11.35
2022-11-26T12:55:04.429Z,11.34
2022-11-26T12:57:39.950Z,11.29
2022-11-26T13:00:15.166Z,11.46
2022-11-26T13:02:49.540Z,11.57
2022-11-26T13:05:22.402Z,11.55
2022-11-26T13:08:11.580Z,11.59
2022-11-26T13:11:28.702Z,11.48
2022-11-26T13:14:03.898Z,11.40
2022-11-26T13:16:52.843Z,11.43
2022-11-26T13:19:27.071Z,11.46
2022-11-26T13:22:29.695Z,11.51
2022-11-26T13:25:05.465Z,11.59
2022-11-26T13:28:18.720Z,11.46
2022-11-26T13:31:23.347Z,11.37
2022-11-26T13:34:19.121Z,11.07
2022-11-26T13:37:04.005Z,10.97
2022-11-26T13:39:52.885Z,10.64
2022-11-26T13:42:50.402Z,10.64
2022-11-26T13:45:39.001Z,10.55
2022-11-26T13:48:28.016Z,10.30
2022-11-26T13:51:25.156Z,9.90
2022-11-26T13:54:04.325Z,9.71
2022-11-26T13:56:33.009Z,9.45
2022-11-26T13:59:16.446Z,9.39
2022-11-26T14:01:43.671Z,9.15
2022-11-26T14:04:47.694Z,9.07
2022-11-26T14:07:14.527Z,8.93
2022-11-26T14:09:46.711Z,8.78
2022-11-26T14:12:15.557Z,8.59
2022-11-26T14:14:44.273Z,8.47
2022-11-26T14:17:14.356Z,8.38
2022-11-26T14:19:40.978Z,8.28
2022-11-26T14:22:20.262Z,8.14
2022-11-26T14:24:50.155Z,8.05
2022-11-26T14:27:26.285Z,7.89
2022-11-26T14:30:00.404Z,7.75
2022-11-26T14:32:31.258Z,7.63
2022-11-26T14:34:58.656Z,7.48
2022-11-26T14:37:31.261Z,7.40
2022-11-26T14:40:08.149Z,7.30
2022-11-26T14:42:35.073Z,7.11
2022-11-26T14:45:19.118Z,7.04
2022-11-26T14:47:50.357Z,7.03
2022-11-26T14:50:21.698Z,6.91
2022-11-26T14:52:57.813Z,6.82
2022-11-26T14:55:28.985Z,6.73
2022-11-26T14:58:14.760Z,6.66
2022-11-26T15:00:41.694Z,6.57
2022-11-26T15:03:25.158Z,6.50
2022-11-26T15:05:51.990Z,6.33
2022-11-26T15:08:20.669Z,6.36
2022-11-26T15:10:52.184Z,6.13
2022-11-26T15:13:28.669Z,6.16
2022-11-26T15:16:02.016Z,6.02
2022-11-26T15:18:32.773Z,6.03
2022-11-26T15:21:01.658Z,5.89
2022-11-26T15:23:37.045Z,5.79
2022-11-26T15:26:04.575Z,5.67
2022-11-26T15:28:38.739Z,5.56
2022-11-26T15:31:08.603Z,5.50
2022-11-26T15:33:37.989Z,5.47
2022-11-26T15:36:09.522Z,5.33
2022-11-26T15:39:03.184Z,5.17
2022-11-26T15:41:30.725Z,5.01
2022-11-26T15:43:59.912Z,4.95
2022-11-26T15:46:35.116Z,4.88
2022-11-26T15:49:08.211Z,4.77
2022-11-26T15:51:59.440Z,4.54
2022-11-26T15:54:56.596Z,4.48
2022-11-26T15:57:30.396Z,4.50
2022-11-26T16:00:05.127Z,4.37
2022-11-26T16:02:32.457Z,4.32
2022-11-26T16:05:03.659Z,4.25
2022-11-26T16:07:33.111Z,4.21
2022-11-26T16:10:25.987Z,4.11
2022-11-26T16:13:19.373Z,4.06
2022-11-26T16:15:51.608Z,3.86
2022-11-26T16:18:24.118Z,3.79
2022-11-26T16:21:01.505Z,3.76
2022-11-26T16:23:30.235Z,3.72
2022-11-26T16:26:26.907Z,3.59
2022-11-26T16:28:53.942Z,3.49
2022-11-26T16:31:21.646Z,3.47
2022-11-26T16:33:48.483Z,3.36
2022-11-26T16:36:27.074Z,3.39
2022-11-26T16:38:54.053Z,3.15
2022-11-26T16:41:22.914Z,3.17
2022-11-26T16:43:50.317Z,3.14
2022-11-26T16:46:20.975Z,3.13
2022-11-26T16:48:48.253Z,3.07
2022-11-26T16:51:15.172Z,2.94
2022-11-26T16:53:42.465Z,2.90
2022-11-26T16:56:27.537Z,2.82
2022-11-26T16:58:58.106Z,2.72
2022-11-26T17:01:24.986Z,2.61
2022-11-26T17:03:51.834Z,2.64
2022-11-26T17:06:39.127Z,2.56
2022-11-26T17:09:05.867Z,2.50
2022-11-26T17:11:32.605Z,2.38
2022-11-26T17:13:59.326Z,2.43
2022-11-26T17:16:26.395Z,2.36
2022-11-26T17:18:53.337Z,2.31
2022-11-26T17:21:20.111Z,2.12
2022-11-26T17:23:46.884Z,2.22
2022-11-26T17:26:22.478Z,2.19
2022-11-26T17:28:50.376Z,2.13
2022-11-26T17:31:18.233Z,2.02
2022-11-26T17:33:45.106Z,2.02
2022-11-26T17:36:21.420Z,1.82
2022-11-26T17:38:49.498Z,1.84
2022-11-26T17:41:16.687Z,1.77
2022-11-26T17:43:44.010Z,1.79
2022-11-26T17:46:21.447Z,1.72
2022-11-26T17:48:51.448Z,1.70
2022-11-26T17:51:21.042Z,1.63
2022-11-26T17:53:47.872Z,1.50
2022-11-26T17:56:24.564Z,1.50
2022-11-26T17:58:51.438Z,1.31
2022-11-26T18:01:18.829Z,1.45
2022-11-26T18:03:46.129Z,1.38
2022-11-26T18:06:37.387Z,1.36
2022-11-26T18:09:04.296Z,1.30
2022-11-26T18:12:00.990Z,1.34
2022-11-26T18:14:29.642Z,1.25
2022-11-26T18:16:56.474Z,1.14
2022-11-26T18:19:23.772Z,1.13
2022-11-26T18:21:51.735Z,1.11
2022-11-26T18:24:18.752Z,1.13
2022-11-26T18:26:45.696Z,1.11
2022-11-26T18:29:12.830Z,1.09
2022-11-26T18:31:40.194Z,1.08
2022-11-26T18:34:08.068Z,1.08
2022-11-26T18:36:35.039Z,1.11
2022-11-26T18:39:04.707Z,0.95
2022-11-26T18:41:31.760Z,0.96
2022-11-26T18:43:58.633Z,0.89
2022-11-26T18:46:25.425Z,0.98
2022-11-26T18:48:52.337Z,0.90
2022-11-26T18:51:19.348Z,0.93
2022-11-26T18:53:46.105Z,0.93
2022-11-26T18:56:16.738Z,0.91
2022-11-26T18:58:44.072Z,0.81
2022-11-26T19:01:23.583Z,0.86
2022-11-26T19:03:50.937Z,0.74
2022-11-26T19:06:21.869Z,0.72
2022-11-26T19:08:49.582Z,0.77
2022-11-26T19:11:24.009Z,0.76
2022-11-26T19:13:51.704Z,0.71
2022-11-26T19:16:19.839Z,0.71
2022-11-26T19:18:47.542Z,0.68
2022-11-26T19:21:33.563Z,0.71
2022-11-26T19:24:03.961Z,0.70
2022-11-26T19:26:31.028Z,0.52
2022-11-26T19:29:02.940Z,0.58
2022-11-26T19:31:30.684Z,0.52
2022-11-26T19:34:01.098Z,0.47
2022-11-26T19:36:29.854Z,0.37
2022-11-26T19:38:58.478Z,0.24
2022-11-26T19:41:26.746Z,0.32
2022-11-26T19:43:54.278Z,0.29
2022-11-26T19:46:24.030Z,0.20
2022-11-26T19:48:52.876Z,0.14
2022-11-26T19:51:22.028Z,0.31
2022-11-26T19:53:51.311Z,0.29
2022-11-26T19:56:25.501Z,0.29
2022-11-26T19:58:58.666Z,0.26
2022-11-26T20:01:30.784Z,0.31
2022-11-26T20:04:04.399Z,0.15
2022-11-26T20:06:34.234Z,0.23
2022-11-26T20:09:01.382Z,0.26
2022-11-26T20:11:48.005Z,0.25
